createdAt,value
2017-08-25T00:00:11.011Z,1009.4
2017-08-25T00:01:13.809Z,1009.3
2017-08-25T00:02:16.268Z,1009.3
2017-08-25T00:03:19.099Z,1009.4
2017-08-25T00:04:21.553Z,1009.3
2017-08-25T00:05:24.362Z,1009.3
2017-08-25T00:06:26.838Z,1009.3
2017-08-25T00:07:29.630Z,1009.3
2017-08-25T00:08:32.427Z,1009.3
2017-08-25T00:09:34.892Z,1009.3
2017-08-25T00:10:37.352Z,1009.3
2017-08-25T00:11:39.807Z,1009.3
2017-08-25T00:12:42.270Z,1009.3
2017-08-25T00:13:44.723Z,1009.3
2017-08-25T00:14:47.524Z,1009.4
2017-08-25T00:15:49.986Z,1009.3
2017-08-25T00:16:52.446Z,1009.3
2017-08-25T00:17:55.000Z,1009.3
2017-08-25T00:18:57.465Z,1009.3
2017-08-25T00:19:59.910Z,1009.3
2017-08-25T00:21:02.728Z,1009.4
2017-08-25T00:22:05.184Z,1009.4
2017-08-25T00:23:07.668Z,1009.3
2017-08-25T00:24:10.124Z,1009.3
2017-08-25T00:25:12.598Z,1009.3
2017-08-25T00:26:15.057Z,1009.3
2017-08-25T00:27:17.518Z,1009.3
2017-08-25T00:28:19.976Z,1009.3
2017-08-25T00:29:22.433Z,1009.3
2017-08-25T00:30:24.893Z,1009.3
2017-08-25T00:31:27.347Z,1009.3
2017-08-25T00:32:29.816Z,1009.3
2017-08-25T00:33:32.623Z,1009.3
2017-08-25T00:34:35.421Z,1009.4
2017-08-25T00:35:38.216Z,1009.4
2017-08-25T00:36:40.666Z,1009.3
2017-08-25T00:37:43.126Z,1009.3
2017-08-25T00:38:45.586Z,1009.3
2017-08-25T00:39:48.033Z,1009.3
2017-08-25T00:40:50.507Z,1009.3
2017-08-25T00:41:52.962Z,1009.3
2017-08-25T00:42:55.427Z,1009.4
2017-08-25T00:43:58.221Z,1009.4
2017-08-25T00:45:00.672Z,1009.4
2017-08-25T00:46:03.119Z,1009.4
2017-08-25T00:47:05.582Z,1009.4
2017-08-25T00:48:08.032Z,1009.4
2017-08-25T00:49:10.496Z,1009.4
2017-08-25T00:50:12.950Z,1009.4
2017-08-25T00:51:15.405Z,1009.4
2017-08-25T00:52:17.867Z,1009.4
2017-08-25T00:53:20.346Z,1009.4
2017-08-25T00:54:22.798Z,1009.4
2017-08-25T00:55:25.260Z,1009.3
2017-08-25T00:56:27.728Z,1009.4
2017-08-25T00:57:30.191Z,1009.3
2017-08-25T00:58:32.973Z,1009.3
2017-08-25T00:59:35.429Z,1009.3
2017-08-25T01:00:37.885Z,1009.3
2017-08-25T01:01:41.026Z,1009.3
2017-08-25T01:02:44.171Z,1009.3
2017-08-25T01:03:46.632Z,1009.3
2017-08-25T01:04:49.077Z,1009.3
2017-08-25T01:05:51.542Z,1009.3
2017-08-25T01:06:54.002Z,1009.3
2017-08-25T01:07:56.819Z,1009.4
2017-08-25T01:08:59.278Z,1009.3
2017-08-25T01:10:01.732Z,1009.4
2017-08-25T01:11:04.178Z,1009.3
2017-08-25T01:12:06.976Z,1009.4
2017-08-25T01:13:09.417Z,1009.4
2017-08-25T01:14:11.870Z,1009.4
2017-08-25T01:15:14.333Z,1009.4
2017-08-25T01:16:16.788Z,1009.4
2017-08-25T01:17:19.575Z,1009.4
2017-08-25T01:18:22.377Z,1009.4
2017-08-25T01:19:24.828Z,1009.4
2017-08-25T01:20:27.286Z,1009.4
2017-08-25T01:21:29.739Z,1009.5
2017-08-25T01:22:32.194Z,1009.4
2017-08-25T01:23:34.664Z,1009.5
2017-08-25T01:24:37.109Z,1009.5
2017-08-25T01:25:39.899Z,1009.5
2017-08-25T01:26:42.355Z,1009.5
2017-08-25T01:27:44.813Z,1009.5
2017-08-25T01:28:47.272Z,1009.5
2017-08-25T01:29:49.719Z,1009.5
2017-08-25T01:30:52.176Z,1009.5
2017-08-25T01:31:54.629Z,1009.5
2017-08-25T01:32:57.078Z,1009.5
2017-08-25T01:33:59.530Z,1009.5
2017-08-25T01:35:01.976Z,1009.5
2017-08-25T01:36:04.438Z,1009.5
2017-08-25T01:37:06.900Z,1009.5
2017-08-25T01:38:09.353Z,1009.5
2017-08-25T01:39:11.804Z,1009.5
2017-08-25T01:40:14.263Z,1009.5
2017-08-25T01:41:16.704Z,1009.5
2017-08-25T01:42:19.155Z,1009.5
2017-08-25T01:43:21.622Z,1009.5
2017-08-25T01:44:24.071Z,1009.4
2017-08-25T01:45:26.520Z,1009.4
2017-08-25T01:46:29.336Z,1009.4
2017-08-25T01:47:31.784Z,1009.4
2017-08-25T01:48:34.590Z,1009.4
2017-08-25T01:49:37.041Z,1009.3
2017-08-25T01:50:39.485Z,1009.3
2017-08-25T01:51:41.943Z,1009.3
2017-08-25T01:52:44.752Z,1009.4
2017-08-25T01:53:47.200Z,1009.4
2017-08-25T01:54:49.649Z,1009.3
2017-08-25T01:55:52.109Z,1009.3
2017-08-25T01:56:54.567Z,1009.3
2017-08-25T01:57:57.017Z,1009.3
2017-08-25T01:58:59.471Z,1009.3
2017-08-25T02:00:01.932Z,1009.3
2017-08-25T02:01:04.384Z,1009.3
2017-08-25T02:02:06.848Z,1009.3
2017-08-25T02:03:09.287Z,1009.3
2017-08-25T02:04:11.737Z,1009.3
2017-08-25T02:05:14.203Z,1009.3
2017-08-25T02:06:16.647Z,1009.3
2017-08-25T02:07:19.105Z,1009.3
2017-08-25T02:08:21.561Z,1009.3
2017-08-25T02:09:24.348Z,1009.3
2017-08-25T02:10:26.800Z,1009.3
2017-08-25T02:11:29.254Z,1009.3
2017-08-25T02:12:32.078Z,1009.3
2017-08-25T02:13:34.529Z,1009.3
2017-08-25T02:14:37.324Z,1009.2
2017-08-25T02:15:39.780Z,1009.3
2017-08-25T02:16:42.578Z,1009.3
2017-08-25T02:17:45.037Z,1009.3
2017-08-25T02:18:47.493Z,1009.3
2017-08-25T02:19:49.952Z,1009.2
2017-08-25T02:20:52.408Z,1009.3
2017-08-25T02:21:54.861Z,1009.3
2017-08-25T02:22:57.313Z,1009.3
2017-08-25T02:23:59.779Z,1009.3
2017-08-25T02:25:02.224Z,1009.2
2017-08-25T02:26:04.682Z,1009.3
2017-08-25T02:27:07.135Z,1009.3
2017-08-25T02:28:09.592Z,1009.3
2017-08-25T02:29:12.037Z,1009.3
2017-08-25T02:30:14.488Z,1009.2
2017-08-25T02:31:16.944Z,1009.3
2017-08-25T02:32:19.395Z,1009.3
2017-08-25T02:33:21.852Z,1009.3
2017-08-25T02:34:24.309Z,1009.3
2017-08-25T02:35:27.312Z,1009.3
2017-08-25T02:36:30.113Z,1009.3
2017-08-25T02:37:32.928Z,1009.3
2017-08-25T02:38:35.369Z,1009.3
2017-08-25T02:39:37.828Z,1009.3
2017-08-25T02:40:40.267Z,1009.3
2017-08-25T02:41:43.076Z,1009.3
2017-08-25T02:42:45.530Z,1009.3
2017-08-25T02:43:47.978Z,1009.3
2017-08-25T02:44:50.431Z,1009.3
2017-08-25T02:45:53.257Z,1009.3
2017-08-25T02:46:56.056Z,1009.3
2017-08-25T02:47:58.522Z,1009.3
2017-08-25T02:49:00.975Z,1009.3
2017-08-25T02:50:03.433Z,1009.3
2017-08-25T02:51:06.233Z,1009.3
2017-08-25T02:52:08.688Z,1009.3
2017-08-25T02:53:11.479Z,1009.3
2017-08-25T02:54:14.296Z,1009.2
2017-08-25T02:55:16.752Z,1009.3
2017-08-25T02:56:19.204Z,1009.2
2017-08-25T02:57:21.994Z,1009.3
2017-08-25T02:58:24.451Z,1009.3
2017-08-25T02:59:26.904Z,1009.3
2017-08-25T03:00:29.698Z,1009.2
2017-08-25T03:01:32.156Z,1009.2
2017-08-25T03:02:34.654Z,1009.3
2017-08-25T03:03:37.103Z,1009.3
2017-08-25T03:04:39.559Z,1009.2
2017-08-25T03:05:42.025Z,1009.3
2017-08-25T03:06:44.487Z,1009.3
2017-08-25T03:07:46.938Z,1009.3
2017-08-25T03:08:49.423Z,1009.3
2017-08-25T03:09:51.852Z,1009.3
2017-08-25T03:10:54.649Z,1009.4
2017-08-25T03:11:57.092Z,1009.4
2017-08-25T03:12:59.913Z,1009.4
2017-08-25T03:14:02.381Z,1009.4
2017-08-25T03:15:04.832Z,1009.4
2017-08-25T03:16:07.281Z,1009.4
2017-08-25T03:17:10.073Z,1009.4
2017-08-25T03:18:12.565Z,1009.4
2017-08-25T03:19:15.026Z,1009.4
2017-08-25T03:20:17.525Z,1009.4
2017-08-25T03:21:19.971Z,1009.4
2017-08-25T03:22:22.482Z,1009.4
2017-08-25T03:23:24.931Z,1009.4
2017-08-25T03:24:27.385Z,1009.4
2017-08-25T03:25:29.862Z,1009.4
2017-08-25T03:26:32.663Z,1009.4
2017-08-25T03:27:35.114Z,1009.3
2017-08-25T03:28:37.565Z,1009.4
2017-08-25T03:29:40.362Z,1009.4
2017-08-25T03:30:42.845Z,1009.4
2017-08-25T03:31:45.295Z,1009.4
2017-08-25T03:32:47.798Z,1009.4
2017-08-25T03:33:50.248Z,1009.4
2017-08-25T03:34:52.741Z,1009.4
2017-08-25T03:35:55.202Z,1009.4
2017-08-25T03:36:57.649Z,1009.4
2017-08-25T03:38:00.156Z,1009.4
2017-08-25T03:39:02.606Z,1009.4
2017-08-25T03:40:05.410Z,1009.4
2017-08-25T03:41:08.209Z,1009.4
2017-08-25T03:42:11.001Z,1009.4
2017-08-25T03:43:13.453Z,1009.4
2017-08-25T03:44:15.912Z,1009.4
2017-08-25T03:45:18.378Z,1009.4
2017-08-25T03:46:21.192Z,1009.5
2017-08-25T03:47:23.678Z,1009.4
2017-08-25T03:48:26.133Z,1009.5
2017-08-25T03:49:28.606Z,1009.5
2017-08-25T03:50:31.073Z,1009.4
2017-08-25T03:51:33.523Z,1009.4
2017-08-25T03:52:36.021Z,1009.4
2017-08-25T03:53:38.478Z,1009.4
2017-08-25T03:54:40.972Z,1009.4
2017-08-25T03:55:43.428Z,1009.5
2017-08-25T03:56:45.877Z,1009.4
2017-08-25T03:57:48.375Z,1009.5
2017-08-25T03:58:50.828Z,1009.5
2017-08-25T03:59:53.288Z,1009.5
2017-08-25T04:00:55.734Z,1009.4
2017-08-25T04:01:58.540Z,1009.5
2017-08-25T04:03:01.002Z,1009.5
2017-08-25T04:04:03.456Z,1009.5
2017-08-25T04:05:05.957Z,1009.4
2017-08-25T04:06:08.413Z,1009.5
2017-08-25T04:07:10.920Z,1009.5
2017-08-25T04:08:13.377Z,1009.5
2017-08-25T04:09:15.828Z,1009.5
2017-08-25T04:10:18.626Z,1009.5
2017-08-25T04:11:21.088Z,1009.5
2017-08-25T04:12:23.536Z,1009.5
2017-08-25T04:13:25.985Z,1009.5
2017-08-25T04:14:28.437Z,1009.5
2017-08-25T04:15:30.922Z,1009.5
2017-08-25T04:16:33.374Z,1009.5
2017-08-25T04:17:35.831Z,1009.5
2017-08-25T04:18:38.620Z,1009.5
2017-08-25T04:19:41.114Z,1009.5
2017-08-25T04:20:43.586Z,1009.5
2017-08-25T04:21:46.033Z,1009.5
2017-08-25T04:22:48.516Z,1009.5
2017-08-25T04:23:50.974Z,1009.5
2017-08-25T04:24:53.430Z,1009.5
2017-08-25T04:25:56.213Z,1009.5
2017-08-25T04:26:58.665Z,1009.5
2017-08-25T04:28:01.515Z,1009.5
2017-08-25T04:29:03.961Z,1009.6
2017-08-25T04:30:06.465Z,1009.6
2017-08-25T04:31:09.256Z,1009.5
2017-08-25T04:32:12.106Z,1009.6
2017-08-25T04:33:14.571Z,1009.5
2017-08-25T04:34:17.076Z,1009.6
2017-08-25T04:35:19.513Z,1009.6
2017-08-25T04:36:21.970Z,1009.6
2017-08-25T04:37:24.473Z,1009.6
2017-08-25T04:38:27.270Z,1009.6
2017-08-25T04:39:29.721Z,1009.6
2017-08-25T04:40:32.169Z,1009.7
2017-08-25T04:41:34.637Z,1009.7
2017-08-25T04:42:37.433Z,1009.7
2017-08-25T04:43:39.887Z,1009.8
2017-08-25T04:44:42.709Z,1009.7
2017-08-25T04:45:45.163Z,1009.8
2017-08-25T04:46:47.610Z,1009.7
2017-08-25T04:47:50.069Z,1009.8
2017-08-25T04:48:52.854Z,1009.8
2017-08-25T04:49:55.309Z,1009.8
2017-08-25T04:50:57.765Z,1009.8
2017-08-25T04:52:00.270Z,1009.8
2017-08-25T04:53:02.737Z,1009.8
2017-08-25T04:54:05.232Z,1009.8
2017-08-25T04:55:08.057Z,1009.8
2017-08-25T04:56:10.509Z,1009.8
2017-08-25T04:57:12.982Z,1009.8
2017-08-25T04:58:15.430Z,1009.8
2017-08-25T04:59:17.898Z,1009.7
2017-08-25T05:00:20.336Z,1009.8
2017-08-25T05:01:22.800Z,1009.7
2017-08-25T05:02:25.303Z,1009.8
2017-08-25T05:03:27.790Z,1009.7
2017-08-25T05:04:30.245Z,1009.7
2017-08-25T05:05:32.702Z,1009.8
2017-08-25T05:06:35.147Z,1009.7
2017-08-25T05:07:37.611Z,1009.7
2017-08-25T05:08:40.059Z,1009.7
2017-08-25T05:09:42.966Z,1009.7
2017-08-25T05:10:45.816Z,1009.7
2017-08-25T05:11:48.265Z,1009.7
2017-08-25T05:12:51.063Z,1009.7
2017-08-25T05:13:53.521Z,1009.7
2017-08-25T05:14:55.973Z,1009.7
2017-08-25T05:15:58.461Z,1009.7
2017-08-25T05:17:00.914Z,1009.7
2017-08-25T05:18:03.366Z,1009.7
2017-08-25T05:19:05.814Z,1009.7
2017-08-25T05:20:08.299Z,1009.7
2017-08-25T05:21:10.788Z,1009.8
2017-08-25T05:22:13.242Z,1009.8
2017-08-25T05:23:15.694Z,1009.7
2017-08-25T05:24:18.147Z,1009.7
2017-08-25T05:25:20.646Z,1009.8
2017-08-25T05:26:23.084Z,1009.8
2017-08-25T05:27:25.552Z,1009.8
2017-08-25T05:28:28.007Z,1009.8
2017-08-25T05:29:30.461Z,1009.9
2017-08-25T05:30:32.933Z,1009.8
2017-08-25T05:31:35.388Z,1009.8
2017-08-25T05:32:37.899Z,1009.8
2017-08-25T05:33:40.352Z,1009.8
2017-08-25T05:34:42.799Z,1009.8
2017-08-25T05:35:45.246Z,1009.8
2017-08-25T05:36:47.706Z,1009.8
2017-08-25T05:37:50.213Z,1009.8
2017-08-25T05:38:52.669Z,1009.9
2017-08-25T05:39:55.108Z,1009.8
2017-08-25T05:40:57.559Z,1009.8
2017-08-25T05:42:00.025Z,1009.8
2017-08-25T05:43:02.582Z,1009.9
2017-08-25T05:44:05.029Z,1009.9
2017-08-25T05:45:07.483Z,1009.9
2017-08-25T05:46:09.940Z,1009.9
2017-08-25T05:47:12.401Z,1009.9
2017-08-25T05:48:14.916Z,1009.8
2017-08-25T05:49:17.358Z,1009.9
2017-08-25T05:50:20.162Z,1009.8
2017-08-25T05:51:22.627Z,1009.8
2017-08-25T05:52:25.087Z,1009.9
2017-08-25T05:53:27.537Z,1009.9
2017-08-25T05:54:30.034Z,1009.9
2017-08-25T05:55:32.482Z,1010
2017-08-25T05:56:34.933Z,1009.9
2017-08-25T05:57:37.736Z,1009.9
2017-08-25T05:58:40.207Z,1009.9
2017-08-25T05:59:43.017Z,1009.9
2017-08-25T06:00:45.486Z,1009.9
2017-08-25T06:01:47.932Z,1009.9
2017-08-25T06:02:50.388Z,1009.9
2017-08-25T06:03:52.939Z,1009.9
2017-08-25T06:04:55.741Z,1009.9
2017-08-25T06:05:58.235Z,1009.9
2017-08-25T06:07:00.697Z,1009.8
2017-08-25T06:08:03.153Z,1009.9
2017-08-25T06:09:05.956Z,1009.9
2017-08-25T06:10:08.799Z,1009.8
2017-08-25T06:11:11.252Z,1009.8
2017-08-25T06:12:13.785Z,1009.8
2017-08-25T06:13:16.251Z,1009.8
2017-08-25T06:14:18.692Z,1009.8
2017-08-25T06:15:21.158Z,1009.9
2017-08-25T06:16:23.610Z,1009.8
2017-08-25T06:17:26.103Z,1009.9
2017-08-25T06:18:28.544Z,1009.9
2017-08-25T06:19:30.994Z,1009.8
2017-08-25T06:20:33.448Z,1009.9
2017-08-25T06:21:36.246Z,1009.8
2017-08-25T06:22:38.788Z,1009.8
2017-08-25T06:23:41.247Z,1009.9
2017-08-25T06:24:43.690Z,1009.8
2017-08-25T06:25:46.151Z,1009.9
2017-08-25T06:26:49.307Z,1009.8
2017-08-25T06:27:51.785Z,1009.9
2017-08-25T06:28:54.639Z,1009.9
2017-08-25T06:29:57.094Z,1009.9
2017-08-25T06:30:59.547Z,1009.9
2017-08-25T06:32:02.008Z,1010
2017-08-25T06:33:04.466Z,1009.9
2017-08-25T06:34:07.007Z,1010
2017-08-25T06:35:09.461Z,1010
2017-08-25T06:36:11.922Z,1010
2017-08-25T06:37:14.378Z,1010
2017-08-25T06:38:17.178Z,1010
2017-08-25T06:39:19.626Z,1010
2017-08-25T06:40:22.179Z,1010
2017-08-25T06:41:24.632Z,1010
2017-08-25T06:42:27.088Z,1010
2017-08-25T06:43:29.546Z,1010
2017-08-25T06:44:32.002Z,1009.9
2017-08-25T06:45:34.868Z,1010
2017-08-25T06:46:37.330Z,1010
2017-08-25T06:47:39.786Z,1010
2017-08-25T06:48:42.241Z,1010
2017-08-25T06:49:44.746Z,1010
2017-08-25T06:50:47.203Z,1010
2017-08-25T06:51:50.023Z,1010
2017-08-25T06:52:52.478Z,1010
2017-08-25T06:53:54.937Z,1010
2017-08-25T06:54:57.388Z,1010.1
2017-08-25T06:56:00.191Z,1010
2017-08-25T06:57:02.690Z,1010.1
2017-08-25T06:58:05.147Z,1010.1
2017-08-25T06:59:07.592Z,1010.1
2017-08-25T07:00:10.051Z,1010.1
2017-08-25T07:01:12.506Z,1010.2
2017-08-25T07:02:15.005Z,1010.1
2017-08-25T07:03:17.459Z,1010.2
2017-08-25T07:04:19.923Z,1010.1
2017-08-25T07:05:22.378Z,1010.2
2017-08-25T07:06:25.181Z,1010.2
2017-08-25T07:07:27.978Z,1010.2
2017-08-25T07:08:30.475Z,1010.2
2017-08-25T07:09:32.931Z,1010.2
2017-08-25T07:10:35.511Z,1010.2
2017-08-25T07:11:37.966Z,1010.3
2017-08-25T07:12:40.420Z,1010.3
2017-08-25T07:13:42.874Z,1010.3
2017-08-25T07:14:45.499Z,1010.3
2017-08-25T07:15:48.338Z,1010.4
2017-08-25T07:16:50.867Z,1010.3
2017-08-25T07:17:53.502Z,1010.4
2017-08-25T07:18:56.146Z,1010.3
2017-08-25T07:19:58.603Z,1010.4
2017-08-25T07:21:01.061Z,1010.4
2017-08-25T07:22:03.520Z,1010.4
2017-08-25T07:23:05.982Z,1010.4
2017-08-25T07:24:08.433Z,1010.4
2017-08-25T07:25:10.894Z,1010.4
2017-08-25T07:26:13.697Z,1010.4
2017-08-25T07:27:16.157Z,1010.4
2017-08-25T07:28:18.610Z,1010.4
2017-08-25T07:29:21.055Z,1010.4
2017-08-25T07:30:23.477Z,1010.4
2017-08-25T07:31:25.879Z,1010.4
2017-08-25T07:32:28.311Z,1010.4
2017-08-25T07:33:30.744Z,1010.4
2017-08-25T07:34:33.187Z,1010.4
2017-08-25T07:35:35.627Z,1010.4
2017-08-25T07:36:38.848Z,1010.4
2017-08-25T07:37:41.461Z,1010.4
2017-08-25T07:38:43.950Z,1010.4
2017-08-25T07:39:46.373Z,1010.4
2017-08-25T07:40:48.853Z,1010.3
2017-08-25T07:41:51.306Z,1010.4
2017-08-25T07:42:53.777Z,1010.4
2017-08-25T07:43:56.250Z,1010.5
2017-08-25T07:44:58.713Z,1010.4
2017-08-25T07:46:01.122Z,1010.4
2017-08-25T07:47:03.638Z,1010.3
2017-08-25T07:48:06.075Z,1010.3
2017-08-25T07:49:08.553Z,1010.3
2017-08-25T07:50:11.011Z,1010.3
2017-08-25T07:51:13.433Z,1010.3
2017-08-25T07:52:15.855Z,1010.3
2017-08-25T07:53:18.377Z,1010.3
2017-08-25T07:54:20.807Z,1010.3
2017-08-25T07:55:23.223Z,1010.3
2017-08-25T07:56:25.651Z,1010.3
2017-08-25T07:57:28.092Z,1010.3
2017-08-25T07:58:30.886Z,1010.4
2017-08-25T07:59:33.353Z,1010.4
2017-08-25T08:00:36.112Z,1010.4
2017-08-25T08:01:38.900Z,1010.4
2017-08-25T08:02:41.699Z,1010.4
2017-08-25T08:03:44.165Z,1010.4
2017-08-25T08:04:46.652Z,1010.4
2017-08-25T08:05:49.064Z,1010.4
2017-08-25T08:06:51.495Z,1010.5
2017-08-25T08:07:53.914Z,1010.5
2017-08-25T08:08:56.362Z,1010.5
2017-08-25T08:09:58.772Z,1010.4
2017-08-25T08:11:01.185Z,1010.5
2017-08-25T08:12:03.655Z,1010.4
2017-08-25T08:13:06.098Z,1010.4
2017-08-25T08:14:08.577Z,1010.5
2017-08-25T08:15:10.999Z,1010.4
2017-08-25T08:16:13.436Z,1010.4
2017-08-25T08:17:15.853Z,1010.5
2017-08-25T08:18:18.645Z,1010.5
2017-08-25T08:19:21.139Z,1010.5
2017-08-25T08:20:23.585Z,1010.5
2017-08-25T08:21:26.040Z,1010.5
2017-08-25T08:22:28.883Z,1010.5
2017-08-25T08:23:31.333Z,1010.5
2017-08-25T08:24:33.739Z,1010.5
2017-08-25T08:25:36.184Z,1010.5
2017-08-25T08:26:38.640Z,1010.5
2017-08-25T08:27:41.124Z,1010.6
2017-08-25T08:28:43.915Z,1010.5
2017-08-25T08:29:46.355Z,1010.5
2017-08-25T08:30:48.776Z,1010.6
2017-08-25T08:31:51.206Z,1010.5
2017-08-25T08:32:53.619Z,1010.6
2017-08-25T08:33:56.053Z,1010.5
2017-08-25T08:34:58.481Z,1010.6
2017-08-25T08:36:00.909Z,1010.6
2017-08-25T08:37:03.334Z,1010.6
2017-08-25T08:38:05.744Z,1010.6
2017-08-25T08:39:08.161Z,1010.6
2017-08-25T08:40:10.571Z,1010.6
2017-08-25T08:41:13.049Z,1010.6
2017-08-25T08:42:15.503Z,1010.6
2017-08-25T08:43:17.922Z,1010.7
2017-08-25T08:44:20.337Z,1010.6
2017-08-25T08:45:22.735Z,1010.7
2017-08-25T08:46:25.177Z,1010.7
2017-08-25T08:47:27.621Z,1010.6
2017-08-25T08:48:30.064Z,1010.7
2017-08-25T08:49:32.490Z,1010.7
2017-08-25T08:50:34.909Z,1010.7
2017-08-25T08:51:37.309Z,1010.7
2017-08-25T08:52:39.768Z,1010.7
2017-08-25T08:53:42.510Z,1010.7
2017-08-25T08:54:44.969Z,1010.6
2017-08-25T08:55:47.392Z,1010.7
2017-08-25T08:56:49.798Z,1010.7
2017-08-25T08:57:52.249Z,1010.6
2017-08-25T08:58:54.725Z,1010.6
2017-08-25T08:59:57.162Z,1010.7
2017-08-25T09:00:59.575Z,1010.7
2017-08-25T09:02:02.035Z,1010.7
2017-08-25T09:03:04.460Z,1010.7
2017-08-25T09:04:06.956Z,1010.8
2017-08-25T09:05:10.062Z,1010.7
2017-08-25T09:06:12.702Z,1010.8
2017-08-25T09:07:15.158Z,1010.8
2017-08-25T09:08:17.581Z,1010.7
2017-08-25T09:09:20.012Z,1010.7
2017-08-25T09:10:22.426Z,1010.7
2017-08-25T09:11:24.997Z,1010.7
2017-08-25T09:12:27.504Z,1010.7
2017-08-25T09:13:29.922Z,1010.6
2017-08-25T09:14:32.802Z,1010.7
2017-08-25T09:15:35.267Z,1010.7
2017-08-25T09:16:37.762Z,1010.7
2017-08-25T09:17:40.181Z,1010.7
2017-08-25T09:18:42.601Z,1010.7
2017-08-25T09:19:45.066Z,1010.7
2017-08-25T09:20:47.580Z,1010.7
2017-08-25T09:21:50.027Z,1010.6
2017-08-25T09:22:52.503Z,1010.6
2017-08-25T09:23:54.912Z,1010.7
2017-08-25T09:24:57.528Z,1010.6
2017-08-25T09:25:59.934Z,1010.6
2017-08-25T09:27:02.770Z,1010.5
2017-08-25T09:28:05.602Z,1010.6
2017-08-25T09:29:08.018Z,1010.6
2017-08-25T09:30:10.443Z,1010.6
2017-08-25T09:31:12.859Z,1010.6
2017-08-25T09:32:15.273Z,1010.6
2017-08-25T09:33:18.035Z,1010.5
2017-08-25T09:34:20.442Z,1010.6
2017-08-25T09:35:22.863Z,1010.6
2017-08-25T09:36:25.282Z,1010.6
2017-08-25T09:37:27.685Z,1010.6
2017-08-25T09:38:30.096Z,1010.7
2017-08-25T09:39:32.513Z,1010.6
2017-08-25T09:40:34.921Z,1010.6
2017-08-25T09:41:37.671Z,1010.7
2017-08-25T09:42:40.077Z,1010.6
2017-08-25T09:43:42.571Z,1010.6
2017-08-25T09:44:44.988Z,1010.6
2017-08-25T09:45:47.458Z,1010.6
2017-08-25T09:46:49.933Z,1010.6
2017-08-25T09:47:52.351Z,1010.7
2017-08-25T09:48:54.770Z,1010.6
2017-08-25T09:49:57.173Z,1010.7
2017-08-25T09:50:59.587Z,1010.7
2017-08-25T09:52:02.010Z,1010.6
2017-08-25T09:53:04.428Z,1010.6
2017-08-25T09:54:06.843Z,1010.6
2017-08-25T09:55:09.251Z,1010.6
2017-08-25T09:56:11.663Z,1010.6
2017-08-25T09:57:14.081Z,1010.5
2017-08-25T09:58:16.508Z,1010.5
2017-08-25T09:59:18.911Z,1010.5
2017-08-25T10:00:21.749Z,1010.6
2017-08-25T10:01:24.243Z,1010.6
2017-08-25T10:02:26.722Z,1010.6
2017-08-25T10:03:29.161Z,1010.6
2017-08-25T10:04:31.574Z,1010.7
2017-08-25T10:05:33.993Z,1010.7
2017-08-25T10:06:36.408Z,1010.6
2017-08-25T10:07:38.914Z,1010.7
2017-08-25T10:08:41.333Z,1010.6
2017-08-25T10:09:43.756Z,1010.6
2017-08-25T10:10:46.177Z,1010.6
2017-08-25T10:11:48.595Z,1010.6
2017-08-25T10:12:51.018Z,1010.7
2017-08-25T10:13:53.431Z,1010.6
2017-08-25T10:14:55.851Z,1010.7
2017-08-25T10:15:58.268Z,1010.6
2017-08-25T10:17:00.681Z,1010.6
2017-08-25T10:18:03.099Z,1010.6
2017-08-25T10:19:05.511Z,1010.6
2017-08-25T10:20:08.019Z,1010.7
2017-08-25T10:21:10.765Z,1010.7
2017-08-25T10:22:13.180Z,1010.7
2017-08-25T10:23:15.604Z,1010.7
2017-08-25T10:24:18.103Z,1010.6
2017-08-25T10:25:20.503Z,1010.6
2017-08-25T10:26:22.924Z,1010.6
2017-08-25T10:27:25.343Z,1010.6
2017-08-25T10:28:27.765Z,1010.7
2017-08-25T10:29:30.276Z,1010.7
2017-08-25T10:30:32.689Z,1010.7
2017-08-25T10:31:35.103Z,1010.7
2017-08-25T10:32:37.530Z,1010.7
2017-08-25T10:33:40.023Z,1010.7
2017-08-25T10:34:42.438Z,1010.8
2017-08-25T10:35:44.865Z,1010.7
2017-08-25T10:36:47.272Z,1010.7
2017-08-25T10:37:49.696Z,1010.8
2017-08-25T10:38:52.107Z,1010.7
2017-08-25T10:39:54.651Z,1010.8
2017-08-25T10:40:57.069Z,1010.7
2017-08-25T10:41:59.486Z,1010.7
2017-08-25T10:43:01.993Z,1010.7
2017-08-25T10:44:04.414Z,1010.6
2017-08-25T10:45:06.830Z,1010.7
2017-08-25T10:46:09.363Z,1010.7
2017-08-25T10:47:12.123Z,1010.7
2017-08-25T10:48:14.876Z,1010.8
2017-08-25T10:49:17.294Z,1010.7
2017-08-25T10:50:19.712Z,1010.6
2017-08-25T10:51:22.578Z,1010.8
2017-08-25T10:52:24.992Z,1010.7
2017-08-25T10:53:27.414Z,1010.8
2017-08-25T10:54:29.835Z,1010.8
2017-08-25T10:55:32.951Z,1010.8
2017-08-25T10:56:35.526Z,1010.7
2017-08-25T10:57:37.945Z,1010.7
2017-08-25T10:58:40.695Z,1010.8
2017-08-25T10:59:43.110Z,1010.8
2017-08-25T11:00:45.748Z,1010.8
2017-08-25T11:01:48.158Z,1010.8
2017-08-25T11:02:50.934Z,1010.9
2017-08-25T11:03:53.349Z,1010.9
2017-08-25T11:04:55.972Z,1010.9
2017-08-25T11:05:58.371Z,1010.9
2017-08-25T11:07:00.791Z,1010.9
2017-08-25T11:08:03.364Z,1010.9
2017-08-25T11:09:06.118Z,1010.9
2017-08-25T11:10:08.542Z,1010.9
2017-08-25T11:11:10.953Z,1010.9
2017-08-25T11:12:13.363Z,1010.9
2017-08-25T11:13:15.779Z,1010.9
2017-08-25T11:14:18.188Z,1010.8
2017-08-25T11:15:20.604Z,1010.9
2017-08-25T11:16:23.020Z,1010.9
2017-08-25T11:17:25.424Z,1010.8
2017-08-25T11:18:28.064Z,1010.8
2017-08-25T11:19:30.471Z,1010.8
2017-08-25T11:20:32.890Z,1010.8
2017-08-25T11:21:35.472Z,1010.8
2017-08-25T11:22:37.870Z,1010.8
2017-08-25T11:23:40.630Z,1010.8
2017-08-25T11:24:43.043Z,1010.8
2017-08-25T11:25:45.453Z,1010.8
2017-08-25T11:26:47.868Z,1010.8
2017-08-25T11:27:50.282Z,1010.7
2017-08-25T11:28:52.689Z,1010.7
2017-08-25T11:29:55.112Z,1010.6
2017-08-25T11:30:57.522Z,1010.7
2017-08-25T11:32:00.152Z,1010.7
2017-08-25T11:33:04.598Z,1010.7
2017-08-25T11:34:17.631Z,1010.7
2017-08-25T11:35:31.023Z,1010.7
2017-08-25T11:36:44.671Z,1010.8
2017-08-25T11:37:59.394Z,1010.7
2017-08-25T11:39:14.212Z,1010.7
2017-08-25T11:40:27.946Z,1010.7
2017-08-25T11:41:41.232Z,1010.7
2017-08-25T11:42:53.482Z,1010.8
2017-08-25T11:44:06.238Z,1010.8
2017-08-25T11:45:19.009Z,1010.8
2017-08-25T11:46:29.969Z,1010.8
2017-08-25T11:47:32.399Z,1010.8
2017-08-25T11:48:34.880Z,1010.8
2017-08-25T11:49:37.291Z,1010.9
2017-08-25T11:50:39.727Z,1010.8
2017-08-25T11:51:42.504Z,1010.9
2017-08-25T11:52:44.930Z,1010.9
2017-08-25T11:53:47.349Z,1010.9
2017-08-25T11:54:49.773Z,1010.9
2017-08-25T11:55:52.185Z,1010.9
2017-08-25T11:56:54.936Z,1010.8
2017-08-25T11:57:57.343Z,1010.8
2017-08-25T11:59:00.064Z,1010.8
2017-08-25T12:00:02.494Z,1010.8
2017-08-25T12:01:05.128Z,1010.8
2017-08-25T12:02:07.863Z,1010.8
2017-08-25T12:03:10.304Z,1010.8
2017-08-25T12:04:13.091Z,1010.7
2017-08-25T12:05:16.741Z,1010.8
2017-08-25T12:06:19.173Z,1010.8
2017-08-25T12:07:21.586Z,1010.8
2017-08-25T12:08:24.013Z,1010.7
2017-08-25T12:09:26.438Z,1010.8
2017-08-25T12:10:28.859Z,1010.7
2017-08-25T12:11:31.801Z,1010.7
2017-08-25T12:12:34.447Z,1010.7
2017-08-25T12:13:36.863Z,1010.7
2017-08-25T12:14:39.289Z,1010.7
2017-08-25T12:15:41.708Z,1010.7
2017-08-25T12:16:44.126Z,1010.7
2017-08-25T12:17:46.704Z,1010.7
2017-08-25T12:18:49.141Z,1010.7
2017-08-25T12:19:51.552Z,1010.8
2017-08-25T12:20:53.971Z,1010.8
2017-08-25T12:21:56.395Z,1010.8
2017-08-25T12:22:58.815Z,1010.8
2017-08-25T12:24:01.561Z,1010.9
2017-08-25T12:25:03.979Z,1010.9
2017-08-25T12:26:06.390Z,1010.8
2017-08-25T12:27:08.799Z,1010.8
2017-08-25T12:28:11.507Z,1010.8
2017-08-25T12:29:13.925Z,1010.8
2017-08-25T12:30:17.096Z,1010.9
2017-08-25T12:31:19.872Z,1010.9
2017-08-25T12:32:22.294Z,1010.9
2017-08-25T12:33:24.705Z,1010.9
2017-08-25T12:34:27.127Z,1010.8
2017-08-25T12:35:29.586Z,1010.9
2017-08-25T12:36:32.079Z,1010.8
2017-08-25T12:37:34.497Z,1010.9
2017-08-25T12:38:36.912Z,1010.9
2017-08-25T12:39:39.326Z,1010.9
2017-08-25T12:40:41.751Z,1010.8
2017-08-25T12:41:44.158Z,1010.9
2017-08-25T12:42:46.717Z,1010.8
2017-08-25T12:43:49.133Z,1010.9
2017-08-25T12:44:51.551Z,1010.9
2017-08-25T12:45:53.966Z,1010.9
2017-08-25T12:46:56.382Z,1010.9
2017-08-25T12:47:58.796Z,1010.9
2017-08-25T12:49:01.293Z,1010.9
2017-08-25T12:50:03.736Z,1010.9
2017-08-25T12:51:06.152Z,1010.9
2017-08-25T12:52:08.577Z,1010.9
2017-08-25T12:53:10.997Z,1010.9
2017-08-25T12:54:13.410Z,1010.9
2017-08-25T12:55:16.147Z,1010.9
2017-08-25T12:56:18.563Z,1010.9
2017-08-25T12:57:20.998Z,1010.9
2017-08-25T12:58:23.417Z,1010.9
2017-08-25T12:59:25.861Z,1010.9
2017-08-25T13:00:28.270Z,1010.9
2017-08-25T13:01:30.711Z,1010.9
2017-08-25T13:02:33.130Z,1010.9